createdAt,value
2022-08-02T00:00:35.866Z,23.67
2022-08-02T00:03:04.178Z,23.61
2022-08-02T00:05:32.124Z,23.55
2022-08-02T00:08:00.099Z,23.53
2022-08-02T00:10:30.532Z,23.50
2022-08-02T00:12:59.082Z,23.48
2022-08-02T00:15:27.023Z,23.41
2022-08-02T00:17:55.390Z,23.38
2022-08-02T00:20:23.383Z,23.37
2022-08-02T00:22:51.307Z,23.34
2022-08-02T00:25:19.631Z,23.30
2022-08-02T00:27:48.954Z,23.26
2022-08-02T00:30:16.950Z,23.21
2022-08-02T00:32:45.253Z,23.16
2022-08-02T00:35:13.247Z,23.13
2022-08-02T00:37:42.150Z,23.06
2022-08-02T00:40:12.206Z,23.03
2022-08-02T00:42:40.734Z,23.01
2022-08-02T00:45:10.865Z,22.99
2022-08-02T00:47:39.258Z,22.94
2022-08-02T00:50:07.738Z,22.88
2022-08-02T00:52:35.709Z,22.84
2022-08-02T00:55:04.066Z,22.78
2022-08-02T00:57:31.985Z,22.74
2022-08-02T00:59:59.958Z,22.69
2022-08-02T01:02:29.668Z,22.67
2022-08-02T01:04:57.670Z,22.65
2022-08-02T01:07:25.710Z,22.61
2022-08-02T01:09:54.000Z,22.56
2022-08-02T01:12:22.071Z,22.51
2022-08-02T01:14:56.600Z,22.45
2022-08-02T01:17:35.515Z,22.37
2022-08-02T01:20:13.209Z,22.37
2022-08-02T01:23:02.152Z,22.32
2022-08-02T01:25:51.394Z,22.37
2022-08-02T01:28:30.895Z,22.28
2022-08-02T01:31:03.651Z,22.14
2022-08-02T01:33:37.487Z,22.14
2022-08-02T01:36:08.813Z,22.14
2022-08-02T01:38:40.978Z,22.06
2022-08-02T01:41:14.784Z,22.00
2022-08-02T01:43:46.643Z,21.99
2022-08-02T01:46:17.598Z,21.95
2022-08-02T01:48:47.290Z,21.95
2022-08-02T01:51:18.440Z,21.91
2022-08-02T01:53:50.996Z,21.88
2022-08-02T01:56:21.045Z,21.86
2022-08-02T01:58:50.989Z,21.83
2022-08-02T02:01:21.876Z,21.79
2022-08-02T02:03:50.502Z,21.78
2022-08-02T02:06:20.108Z,21.77
2022-08-02T02:08:50.970Z,21.75
2022-08-02T02:12:06.215Z,21.73
2022-08-02T02:14:09.144Z,21.69
2022-08-02T02:16:38.530Z,21.66
2022-08-02T02:19:08.552Z,21.64
2022-08-02T02:21:36.841Z,21.61
2022-08-02T02:24:09.085Z,21.56
2022-08-02T02:26:42.952Z,21.51
2022-08-02T02:29:26.356Z,21.48
2022-08-02T02:31:56.046Z,21.45
2022-08-02T02:34:28.994Z,21.41
2022-08-02T02:37:00.384Z,21.37
2022-08-02T02:39:30.005Z,21.30
2022-08-02T02:42:03.150Z,21.28
2022-08-02T02:44:34.323Z,21.24
2022-08-02T02:47:03.520Z,21.21
2022-08-02T02:49:33.976Z,21.20
2022-08-02T02:52:03.260Z,21.13
2022-08-02T02:54:35.435Z,21.14
2022-08-02T02:57:06.508Z,21.14
2022-08-02T02:59:48.993Z,21.12
2022-08-02T03:02:18.833Z,21.10
2022-08-02T03:04:57.061Z,21.06
2022-08-02T03:07:27.286Z,21.03
2022-08-02T03:09:55.949Z,20.95
2022-08-02T03:12:31.487Z,20.86
2022-08-02T03:15:04.081Z,20.85
2022-08-02T03:17:39.640Z,20.89
2022-08-02T03:20:11.008Z,20.93
2022-08-02T03:22:39.134Z,20.90
2022-08-02T03:25:08.865Z,20.91
2022-08-02T03:27:36.827Z,20.93
2022-08-02T03:30:08.831Z,20.88
2022-08-02T03:32:38.642Z,20.89
2022-08-02T03:35:08.948Z,20.88
2022-08-02T03:37:38.459Z,20.90
2022-08-02T03:40:09.310Z,20.89
2022-08-02T03:42:38.407Z,20.85
2022-08-02T03:45:11.216Z,20.85
2022-08-02T03:47:40.483Z,20.84
2022-08-02T03:50:12.472Z,20.78
2022-08-02T03:52:42.505Z,20.73
2022-08-02T03:55:11.698Z,20.70
2022-08-02T03:57:40.347Z,20.65
2022-08-02T04:00:12.999Z,20.64
2022-08-02T04:02:40.918Z,20.65
2022-08-02T04:05:09.751Z,20.66
2022-08-02T04:08:34.178Z,20.67
2022-08-02T04:10:25.937Z,20.65
2022-08-02T04:12:54.198Z,20.67
2022-08-02T04:15:24.517Z,20.72
2022-08-02T04:17:57.508Z,20.77
2022-08-02T04:20:29.423Z,20.83
2022-08-02T04:23:01.480Z,20.86
2022-08-02T04:25:38.215Z,20.91
2022-08-02T04:28:17.214Z,20.95
2022-08-02T04:30:48.432Z,21.02
2022-08-02T04:33:16.996Z,21.05
2022-08-02T04:35:47.026Z,21.11
2022-08-02T04:38:16.922Z,21.17
2022-08-02T04:40:52.321Z,21.17
2022-08-02T04:43:23.715Z,21.21
2022-08-02T04:45:55.038Z,21.21
2022-08-02T04:48:24.487Z,21.21
2022-08-02T04:50:53.082Z,21.22
2022-08-02T04:53:21.071Z,21.28
2022-08-02T04:55:49.213Z,21.29
2022-08-02T04:58:39.832Z,21.34
2022-08-02T05:01:06.767Z,21.44
2022-08-02T05:03:34.946Z,21.58
2022-08-02T05:06:03.527Z,21.66
2022-08-02T05:08:46.848Z,21.86
2022-08-02T05:11:21.288Z,21.97
2022-08-02T05:13:58.016Z,22.05
2022-08-02T05:16:31.281Z,22.10
2022-08-02T05:19:00.334Z,22.18
2022-08-02T05:21:28.964Z,22.26
2022-08-02T05:23:56.920Z,22.25
2022-08-02T05:26:25.095Z,22.30
2022-08-02T05:28:55.211Z,22.29
2022-08-02T05:31:23.122Z,22.30
2022-08-02T05:33:52.787Z,22.28
2022-08-02T05:36:21.656Z,22.33
2022-08-02T05:38:50.810Z,22.37
2022-08-02T05:41:19.109Z,22.42
2022-08-02T05:43:47.157Z,22.38
2022-08-02T05:46:15.358Z,22.43
2022-08-02T05:48:45.193Z,22.57
2022-08-02T05:51:23.221Z,22.63
2022-08-02T05:53:55.336Z,22.73
2022-08-02T05:56:33.859Z,22.92
2022-08-02T05:59:06.008Z,23.00
2022-08-02T06:01:36.947Z,23.06
2022-08-02T06:04:08.165Z,23.20
2022-08-02T06:06:38.726Z,23.35
2022-08-02T06:09:10.803Z,23.47
2022-08-02T06:12:02.678Z,23.62
2022-08-02T06:14:33.229Z,23.78
2022-08-02T06:17:04.603Z,23.98
2022-08-02T06:19:46.980Z,24.18
2022-08-02T06:22:42.029Z,24.29
2022-08-02T06:25:47.840Z,24.42
2022-08-02T06:28:00.676Z,24.59
2022-08-02T06:30:29.714Z,24.70
2022-08-02T06:32:57.661Z,24.74
2022-08-02T06:35:31.867Z,24.78
2022-08-02T06:38:03.319Z,24.76
2022-08-02T06:40:34.192Z,24.70
2022-08-02T06:43:11.949Z,24.70
2022-08-02T06:45:40.671Z,24.72
2022-08-02T06:48:09.801Z,24.77
2022-08-02T06:50:38.822Z,24.83
2022-08-02T06:53:08.662Z,24.80
2022-08-02T06:55:43.354Z,24.81
2022-08-02T06:58:13.040Z,24.89
2022-08-02T07:00:41.727Z,24.97
2022-08-02T07:03:09.775Z,25.04
2022-08-02T07:05:37.833Z,25.27
2022-08-02T07:08:08.919Z,25.31
2022-08-02T07:10:38.124Z,25.34
2022-08-02T07:13:08.284Z,25.24
2022-08-02T07:15:36.318Z,25.23
2022-08-02T07:18:04.410Z,25.42
2022-08-02T07:20:32.842Z,25.65
2022-08-02T07:23:00.743Z,25.83
2022-08-02T07:26:01.639Z,26.01
2022-08-02T07:28:23.650Z,26.21
2022-08-02T07:30:52.633Z,26.45
2022-08-02T07:33:37.781Z,26.58
2022-08-02T07:36:09.760Z,26.78
2022-08-02T07:38:45.574Z,26.97
2022-08-02T07:41:13.674Z,27.18
2022-08-02T07:43:42.974Z,27.29
2022-08-02T07:46:11.202Z,27.39
2022-08-02T07:48:39.145Z,27.51
2022-08-02T07:51:07.090Z,27.63
2022-08-02T07:53:50.770Z,27.66
2022-08-02T07:56:19.623Z,27.77
2022-08-02T07:58:49.530Z,27.88
2022-08-02T08:01:18.366Z,27.93
2022-08-02T08:03:46.809Z,28.11
2022-08-02T08:06:14.881Z,28.30
2022-08-02T08:08:44.301Z,28.47
2022-08-02T08:11:12.477Z,28.52
2022-08-02T08:13:40.776Z,28.70
2022-08-02T08:16:10.005Z,28.92
2022-08-02T08:18:38.149Z,29.15
2022-08-02T08:21:06.181Z,29.28
2022-08-02T08:23:35.353Z,29.33
2022-08-02T08:26:03.794Z,29.32
2022-08-02T08:28:31.881Z,29.46
2022-08-02T08:30:59.814Z,29.38
2022-08-02T08:33:29.492Z,29.41
2022-08-02T08:35:58.139Z,29.42
2022-08-02T08:38:26.254Z,29.40
2022-08-02T08:40:56.966Z,29.51
2022-08-02T08:43:24.861Z,29.71
2022-08-02T08:45:55.879Z,29.87
2022-08-02T08:48:31.283Z,30.05
2022-08-02T08:51:08.619Z,30.23
2022-08-02T08:53:43.125Z,30.31
2022-08-02T08:56:16.180Z,30.49
2022-08-02T08:58:47.319Z,30.57
2022-08-02T09:01:16.901Z,30.61
2022-08-02T09:03:46.010Z,30.55
2022-08-02T09:06:15.395Z,30.55
2022-08-02T09:08:43.495Z,30.73
2022-08-02T09:11:15.066Z,30.93
2022-08-02T09:13:51.819Z,31.11
2022-08-02T09:16:32.252Z,31.18
2022-08-02T09:19:01.857Z,31.34
2022-08-02T09:21:38.870Z,31.42
2022-08-02T09:24:17.571Z,31.52
2022-08-02T09:26:46.311Z,31.53
2022-08-02T09:29:15.262Z,31.67
2022-08-02T09:31:49.928Z,31.84
2022-08-02T09:34:20.051Z,31.98
2022-08-02T09:36:54.314Z,32.02
2022-08-02T09:39:26.347Z,32.06
2022-08-02T09:42:08.259Z,32.01
2022-08-02T09:44:36.595Z,32.15
2022-08-02T09:47:16.446Z,32.29
2022-08-02T09:49:52.260Z,32.20
2022-08-02T09:52:37.398Z,32.26
2022-08-02T09:55:13.440Z,32.41
2022-08-02T09:57:41.458Z,32.62
2022-08-02T10:00:14.867Z,32.78
2022-08-02T10:03:09.056Z,32.96
2022-08-02T10:05:55.598Z,32.96
2022-08-02T10:08:26.899Z,32.97
2022-08-02T10:11:00.456Z,32.79
2022-08-02T10:13:30.931Z,32.76
2022-08-02T10:15:59.425Z,32.76
2022-08-02T10:18:42.789Z,32.96
2022-08-02T10:21:16.944Z,33.05
2022-08-02T10:23:49.830Z,33.14
2022-08-02T10:26:19.439Z,33.23
2022-08-02T10:28:49.502Z,33.19
2022-08-02T10:31:22.083Z,33.30
2022-08-02T10:33:52.973Z,33.39
2022-08-02T10:36:23.671Z,33.43
2022-08-02T10:38:54.268Z,33.59
2022-08-02T10:41:41.546Z,33.79
2022-08-02T10:44:24.363Z,33.97
2022-08-02T10:46:54.414Z,34.12
2022-08-02T10:49:39.059Z,34.19
2022-08-02T10:52:10.034Z,34.34
2022-08-02T10:54:41.969Z,34.30
2022-08-02T10:57:22.031Z,34.15
2022-08-02T10:59:51.373Z,34.04
2022-08-02T11:02:38.451Z,33.91
2022-08-02T11:05:09.785Z,33.88
2022-08-02T11:07:39.809Z,33.97
2022-08-02T11:10:35.586Z,33.91
2022-08-02T11:13:07.821Z,33.99
2022-08-02T11:16:10.611Z,34.24
2022-08-02T11:19:06.661Z,34.44
2022-08-02T11:21:35.906Z,34.49
2022-08-02T11:24:28.004Z,34.67
2022-08-02T11:26:58.098Z,34.58
2022-08-02T11:29:38.216Z,34.72
2022-08-02T11:32:08.010Z,34.79
2022-08-02T11:34:37.282Z,34.68
2022-08-02T11:37:06.521Z,34.58
2022-08-02T11:39:34.398Z,34.34
2022-08-02T11:42:04.077Z,34.18
2022-08-02T11:44:41.717Z,34.16
2022-08-02T11:47:10.066Z,34.08
2022-08-02T11:49:38.518Z,34.19
2022-08-02T11:52:11.065Z,34.01
2022-08-02T11:54:41.398Z,34.14
2022-08-02T11:57:19.757Z,34.23
2022-08-02T11:59:50.929Z,34.29
2022-08-02T12:02:20.456Z,34.45
2022-08-02T12:04:58.467Z,34.54
2022-08-02T12:07:31.969Z,34.69
2022-08-02T12:10:06.398Z,34.88
2022-08-02T12:12:48.986Z,35.03
2022-08-02T12:15:30.259Z,34.98
2022-08-02T12:18:15.991Z,34.99
2022-08-02T12:20:44.412Z,34.75
2022-08-02T12:23:12.368Z,34.76
2022-08-02T12:25:40.549Z,34.82
2022-08-02T12:28:22.291Z,34.97
2022-08-02T12:30:52.609Z,35.02
2022-08-02T12:35:39.044Z,35.87
2022-08-02T12:38:11.399Z,35.87
2022-08-02T12:40:39.807Z,35.43
2022-08-02T12:43:11.211Z,35.56
2022-08-02T12:45:49.129Z,35.44
2022-08-02T12:48:19.027Z,34.84
2022-08-02T12:50:48.618Z,34.47
2022-08-02T12:53:19.088Z,34.44
2022-08-02T12:56:00.395Z,34.64
2022-08-02T12:58:30.797Z,34.76
2022-08-02T13:01:01.111Z,34.82
2022-08-02T13:04:09.664Z,34.96
2022-08-02T13:06:42.060Z,35.00
2022-08-02T13:09:16.750Z,35.22
2022-08-02T13:11:45.141Z,35.30
2022-08-02T13:14:14.179Z,35.48
2022-08-02T13:16:43.829Z,35.71
2022-08-02T13:19:13.139Z,35.84
2022-08-02T13:22:01.011Z,35.87
2022-08-02T13:24:38.557Z,35.77
2022-08-02T13:27:09.974Z,35.85
2022-08-02T13:29:39.043Z,35.92
2022-08-02T13:32:07.239Z,36.17
2022-08-02T13:34:35.465Z,36.13
2022-08-02T13:37:05.582Z,36.11
2022-08-02T13:39:33.665Z,36.17
2022-08-02T13:42:01.649Z,36.48
2022-08-02T13:44:35.818Z,36.70
2022-08-02T13:47:03.914Z,36.68
2022-08-02T13:49:38.508Z,36.80
2022-08-02T13:52:19.733Z,37.05
2022-08-02T13:54:47.909Z,37.32
2022-08-02T13:57:15.822Z,37.53
2022-08-02T13:59:57.800Z,37.61
2022-08-02T14:02:28.675Z,37.63
2022-08-02T14:04:57.065Z,37.74
2022-08-02T14:07:26.307Z,37.99
2022-08-02T14:09:54.175Z,38.16
2022-08-02T14:12:22.387Z,38.27
2022-08-02T14:14:50.573Z,38.44
2022-08-02T14:17:19.671Z,38.23
2022-08-02T14:19:47.835Z,38.28
2022-08-02T14:22:15.783Z,38.18
2022-08-02T14:24:45.302Z,38.28
2022-08-02T14:27:13.602Z,38.14
2022-08-02T14:29:41.539Z,37.81
2022-08-02T14:32:09.958Z,37.74
2022-08-02T14:34:38.414Z,37.69
2022-08-02T14:37:06.366Z,37.68
2022-08-02T14:39:43.569Z,37.87
2022-08-02T14:42:23.748Z,37.91
2022-08-02T14:44:51.651Z,37.96
2022-08-02T14:47:19.791Z,37.98
2022-08-02T14:49:50.285Z,37.69
2022-08-02T14:52:19.759Z,37.72
2022-08-02T14:54:48.012Z,37.64
2022-08-02T14:57:16.972Z,37.66
2022-08-02T14:59:47.208Z,37.65
2022-08-02T15:02:15.953Z,37.71
2022-08-02T15:04:44.175Z,38.01
2022-08-02T15:07:15.258Z,38.23
2022-08-02T15:09:43.443Z,38.62
2022-08-02T15:12:12.478Z,39.16
2022-08-02T15:14:41.107Z,39.24
2022-08-02T15:17:10.952Z,39.32
2022-08-02T15:19:58.100Z,39.35
2022-08-02T15:22:29.386Z,39.40
2022-08-02T15:24:59.257Z,39.33
2022-08-02T15:27:27.179Z,39.69
2022-08-02T15:30:00.090Z,39.92
2022-08-02T15:32:29.797Z,40.04
2022-08-02T15:34:57.972Z,40.13
2022-08-02T15:37:26.012Z,39.54
2022-08-02T15:39:59.969Z,38.86
2022-08-02T15:42:30.426Z,38.35
2022-08-02T15:45:00.618Z,38.20
2022-08-02T15:47:29.934Z,38.37
2022-08-02T15:49:58.584Z,38.32
2022-08-02T15:52:28.615Z,38.72
2022-08-02T15:55:07.135Z,39.16
2022-08-02T15:57:36.302Z,39.72
2022-08-02T16:00:05.988Z,40.01
2022-08-02T16:02:35.470Z,40.23
2022-08-02T16:05:03.362Z,39.93
2022-08-02T16:07:42.330Z,39.31
2022-08-02T16:10:11.740Z,38.87
2022-08-02T16:12:39.691Z,38.60
2022-08-02T16:15:09.425Z,38.47
2022-08-02T16:17:48.672Z,38.51
2022-08-02T16:20:23.128Z,38.61
2022-08-02T16:22:51.075Z,38.78
2022-08-02T16:25:19.110Z,38.74
2022-08-02T16:28:06.817Z,38.88
2022-08-02T16:30:35.380Z,39.10
2022-08-02T16:33:05.059Z,39.04
2022-08-02T16:35:34.774Z,38.79
2022-08-02T16:38:02.840Z,38.39
2022-08-02T16:40:32.582Z,38.10
2022-08-02T16:43:00.635Z,37.81
2022-08-02T16:45:29.372Z,37.51
2022-08-02T16:48:05.517Z,37.13
2022-08-02T16:50:35.553Z,36.87
2022-08-02T16:53:07.143Z,36.67
2022-08-02T16:55:53.272Z,36.47
2022-08-02T16:58:21.525Z,36.27
2022-08-02T17:00:49.464Z,36.16
2022-08-02T17:03:17.426Z,36.10
2022-08-02T17:05:56.008Z,36.69
2022-08-02T17:08:31.629Z,37.87
2022-08-02T17:11:03.411Z,38.70
2022-08-02T17:13:34.485Z,39.03
2022-08-02T17:16:20.645Z,39.31
2022-08-02T17:18:53.926Z,39.42
2022-08-02T17:21:23.823Z,39.91
2022-08-02T17:24:05.580Z,40.74
2022-08-02T17:26:35.308Z,41.24
2022-08-02T17:29:15.362Z,41.43
2022-08-02T17:32:05.224Z,41.16
2022-08-02T17:34:35.450Z,40.86
2022-08-02T17:37:06.338Z,41.07
2022-08-02T17:39:44.209Z,41.22
2022-08-02T17:42:23.072Z,41.11
2022-08-02T17:45:06.775Z,41.21
2022-08-02T17:48:04.580Z,41.27
2022-08-02T17:50:34.132Z,41.19
2022-08-02T17:53:03.660Z,41.14
2022-08-02T17:55:33.149Z,40.98
2022-08-02T17:58:01.075Z,40.62
2022-08-02T18:00:34.159Z,39.79
2022-08-02T18:03:05.446Z,38.92
2022-08-02T18:05:39.109Z,38.18
2022-08-02T18:08:10.125Z,37.45
2022-08-02T18:10:39.288Z,36.79
2022-08-02T18:13:07.395Z,36.19
2022-08-02T18:15:36.194Z,35.68
2022-08-02T18:18:04.170Z,35.25
2022-08-02T18:20:32.369Z,34.90
2022-08-02T18:23:00.610Z,34.52
2022-08-02T18:25:37.221Z,34.19
2022-08-02T18:28:15.068Z,33.89
2022-08-02T18:30:43.555Z,33.49
2022-08-02T18:35:59.982Z,32.93
2022-08-02T18:38:30.215Z,32.59
2022-08-02T18:41:02.438Z,32.31
2022-08-02T18:43:36.398Z,32.09
2022-08-02T18:46:15.439Z,31.82
2022-08-02T18:48:46.593Z,31.56
2022-08-02T18:51:36.666Z,31.31
2022-08-02T18:54:05.640Z,31.09
2022-08-02T18:56:34.861Z,30.90
2022-08-02T18:59:07.758Z,30.76
2022-08-02T19:01:48.670Z,30.59
2022-08-02T19:04:26.801Z,30.40
2022-08-02T19:07:06.982Z,30.15
2022-08-02T19:09:39.773Z,30.01
2022-08-02T19:12:11.556Z,29.89
2022-08-02T19:14:40.190Z,29.77
2022-08-02T19:17:15.864Z,29.58
2022-08-02T19:19:56.556Z,29.38
2022-08-02T19:22:25.328Z,29.13
2022-08-02T19:25:00.006Z,28.96
2022-08-02T19:27:34.152Z,28.80
2022-08-02T19:30:03.429Z,28.63
2022-08-02T19:32:40.763Z,28.48
2022-08-02T19:35:29.778Z,28.33
2022-08-02T19:38:08.550Z,28.21
2022-08-02T19:40:37.494Z,28.08
2022-08-02T19:44:26.003Z,27.90
2022-08-02T19:45:57.223Z,27.78
2022-08-02T19:48:26.871Z,27.64
2022-08-02T19:51:00.924Z,27.54
2022-08-02T19:53:47.757Z,27.44
2022-08-02T19:56:24.838Z,27.32
2022-08-02T19:58:57.719Z,27.17
2022-08-02T20:01:39.410Z,27.04
2022-08-02T20:04:13.345Z,26.92
2022-08-02T20:06:45.083Z,26.80
2022-08-02T20:09:16.596Z,26.74
2022-08-02T20:11:45.536Z,26.65
2022-08-02T20:14:15.392Z,26.54
2022-08-02T20:16:44.245Z,26.46
2022-08-02T20:19:14.512Z,26.36
2022-08-02T20:21:52.963Z,26.25
2022-08-02T20:27:16.768Z,26.07
2022-08-02T20:29:50.758Z,25.93
2022-08-02T20:32:23.473Z,25.86
2022-08-02T20:34:52.810Z,25.77
2022-08-02T20:37:59.306Z,25.68
2022-08-02T20:40:16.749Z,25.62
2022-08-02T20:42:47.819Z,25.50
2022-08-02T20:45:18.341Z,25.43
2022-08-02T20:47:49.888Z,25.34
2022-08-02T20:50:37.002Z,25.23
2022-08-02T20:53:06.079Z,25.20
2022-08-02T20:55:35.624Z,25.19
2022-08-02T20:58:04.817Z,25.14
2022-08-02T21:00:35.124Z,25.10
2022-08-02T21:03:04.540Z,25.05
2022-08-02T21:05:54.318Z,24.97
2022-08-02T21:08:21.887Z,24.93
2022-08-02T21:10:52.301Z,24.87
2022-08-02T21:13:23.774Z,24.86
2022-08-02T21:15:55.411Z,24.83
2022-08-02T21:18:33.892Z,24.73
2022-08-02T21:21:08.783Z,24.67
2022-08-02T21:23:37.352Z,24.61
2022-08-02T21:26:06.504Z,24.57
2022-08-02T21:28:44.954Z,24.52
2022-08-02T21:31:15.878Z,24.50
2022-08-02T21:33:57.123Z,24.47
2022-08-02T21:36:30.652Z,24.41
2022-08-02T21:39:04.458Z,24.33
2022-08-02T21:41:39.720Z,24.25
2022-08-02T21:44:15.832Z,24.16
2022-08-02T21:46:46.663Z,24.11
2022-08-02T21:49:18.377Z,24.04
2022-08-02T21:51:49.252Z,24.04
2022-08-02T21:54:20.336Z,23.94
2022-08-02T21:59:39.150Z,23.79
2022-08-02T22:02:14.733Z,23.73
2022-08-02T22:04:47.506Z,23.68
2022-08-02T22:07:23.836Z,23.61
2022-08-02T22:09:53.067Z,23.52
2022-08-02T22:12:25.791Z,23.49
2022-08-02T22:14:56.421Z,23.45
2022-08-02T22:17:51.424Z,23.40
2022-08-02T22:20:20.175Z,23.35
2022-08-02T22:22:50.481Z,23.35
2022-08-02T22:25:36.022Z,23.30
2022-08-02T22:28:37.218Z,23.23
2022-08-02T22:31:04.338Z,23.19
2022-08-02T22:34:00.545Z,23.14
2022-08-02T22:36:30.969Z,23.09
2022-08-02T22:38:59.774Z,23.01
2022-08-02T22:42:01.374Z,22.93
2022-08-02T22:44:16.869Z,22.89
2022-08-02T22:46:46.995Z,22.81
2022-08-02T22:49:38.189Z,22.81
2022-08-02T22:52:08.055Z,22.77
2022-08-02T22:54:36.385Z,22.74
2022-08-02T22:57:06.563Z,22.72
2022-08-02T22:59:00.260Z,33.17
2022-08-02T22:59:06.569Z,26.16
2022-08-02T22:59:12.689Z,23.86
2022-08-02T22:59:40.617Z,22.70
2022-08-02T23:02:09.145Z,22.69
2022-08-02T23:04:39.887Z,22.68
2022-08-02T23:07:08.062Z,22.69
2022-08-02T23:09:35.965Z,22.69
2022-08-02T23:12:04.334Z,22.70
2022-08-02T23:14:32.677Z,22.70
2022-08-02T23:17:18.187Z,22.73
2022-08-02T23:19:53.450Z,22.74
2022-08-02T23:22:29.126Z,22.69
2022-08-02T23:24:58.709Z,22.65
2022-08-02T23:27:26.775Z,22.60
2022-08-02T23:29:55.042Z,22.58
2022-08-02T23:32:25.479Z,22.52
2022-08-02T23:34:55.605Z,22.51
2022-08-02T23:37:24.297Z,22.50
2022-08-02T23:39:52.799Z,22.46
2022-08-02T23:42:20.895Z,22.40
2022-08-02T23:44:49.068Z,22.36
2022-08-02T23:47:17.746Z,22.34
2022-08-02T23:49:45.784Z,22.31
2022-08-02T23:52:15.568Z,22.27
2022-08-02T23:54:43.602Z,22.24
2022-08-02T23:57:20.997Z,22.20
2022-08-02T23:59:51.028Z,22.20
